Arlington Center, Vermont
Current Conditions -  °F | °C
As of 11:54 AM on Sunday 23 Nov 2014 (Local Time) from KDDH Reporting Station
Clear Clear  
Wind Chill: 53°   Ceiling: Unl
Heat Index: 53°   Visibility: 10mi
Dew Point: 41°   Wind: 0mph
Humidity: 64%   Direction: NA
Pressure: 30.09"   Gusts: NA
Location:  43.1041°N, 73.154°W
Report Text: KDDH 231654Z AUTO 00000KT 10SM CLR 12/05 A3009 RMK AO2 SLP191 T01170050
Loading
Personal Weather Stations






























Interactive Weather Map New forecast layout! Learn more

10-Day Weather Forecast

Advertisements
Track Severe Weather on mobile